Neck City, Missouri
Current Conditions -  °F | °C
As of 1:53 AM on Monday 22 Dec 2014 (Local Time) from KJLN Reporting Station
Overcast Overcast  
Wind Chill: 37°   Ceiling: 1100
Heat Index: 43°   Visibility: 7mi
Dew Point: 41°   Wind: 10mph
Humidity: 93%   Direction: 140°SE
Pressure: 29.71"   Gusts: NA
Location:  37.26°N, 94.44°W
Report Text: KJLN 220753Z AUTO 14009KT 7SM BKN011 OVC018 06/05 A2971 RMK AO2 SLP059 T00610050 $
Loading
Personal Weather Stations






























Interactive Weather Map New forecast layout! Learn more

10-Day Weather Forecast

Advertisements
Track Severe Weather on mobile